Time;durP1;ratioP1;P1;durP2;ratioP2;P2;SDS_P1;SDS_P2;PMS_P1;PMS_P2;Temp;Humidity;BMP_temperature;BMP_pressure;BME280_temperature;BME280_humidity;BME280_pressure;Samples;Min_cycle;Max_cycle;Signal;HPM_P1;HPM_P2
2023/05/17 00:01:45;;;;;;;2.75;2.42;;;;;;;;;;5073932;28;20238;-37
2023/05/17 00:04:12;;;;;;;3.05;2.38;;;;;;;;;;5073803;28;20199;-37
2023/05/17 00:06:40;;;;;;;3.28;2.58;;;;;;;;;;5073673;28;20203;-36
2023/05/17 00:09:07;;;;;;;3.42;2.92;;;;;;;;;;5073914;28;20199;-37
2023/05/17 00:11:35;;;;;;;3.03;2.33;;;;;;;;;;5074057;28;20215;-36
2023/05/17 00:14:02;;;;;;;3.30;2.80;;;;;;;;;;5073797;28;20207;-38
2023/05/17 00:16:29;;;;;;;3.97;2.47;;;;;;;;;;5073759;28;20204;-37
2023/05/17 00:18:56;;;;;;;4.25;2.78;;;;;;;;;;5073502;28;20725;-37
2023/05/17 00:21:24;;;;;;;3.28;2.75;;;;;;;;;;5073418;28;20230;-37
2023/05/17 00:23:51;;;;;;;3.70;2.55;;;;;;;;;;5073733;28;20221;-37
2023/05/17 00:26:19;;;;;;;3.28;2.67;;;;;;;;;;5073738;28;20576;-37
2023/05/17 00:28:46;;;;;;;3.53;2.83;;;;;;;;;;5073704;28;20203;-37
2023/05/17 00:31:14;;;;;;;4.30;2.78;;;;;;;;;;5073386;28;20203;-36
2023/05/17 00:33:43;;;;;;;2.97;2.67;;;;;;;;;;5072091;28;20592;-37
2023/05/17 00:36:10;;;;;;;3.50;2.65;;;;;;;;;;5072402;28;20210;-37
2023/05/17 00:38:37;;;;;;;3.50;3.10;;;;;;;;;;5073602;28;20282;-37
2023/05/17 00:41:05;;;;;;;4.82;3.17;;;;;;;;;;5073637;28;20223;-37
2023/05/17 00:43:32;;;;;;;3.15;2.70;;;;;;;;;;5072237;28;20199;-37
2023/05/17 00:45:59;;;;;;;3.67;2.95;;;;;;;;;;5073200;28;20256;-37
2023/05/17 00:48:27;;;;;;;3.42;2.38;;;;;;;;;;5073257;28;20203;-37
2023/05/17 00:50:55;;;;;;;4.13;3.15;;;;;;;;;;5071806;28;20237;-37
2023/05/17 00:53:22;;;;;;;3.13;2.83;;;;;;;;;;5072547;28;20249;-37
2023/05/17 00:55:50;;;;;;;3.75;2.85;;;;;;;;;;5073204;28;20199;-37
2023/05/17 00:58:18;;;;;;;3.45;2.80;;;;;;;;;;5072047;28;20199;-37
2023/05/17 01:00:45;;;;;;;3.58;2.95;;;;;;;;;;5074311;28;20694;-37
2023/05/17 01:03:12;;;;;;;4.00;2.97;;;;;;;;;;5076547;28;20207;-37
2023/05/17 01:05:40;;;;;;;3.55;3.08;;;;;;;;;;5076068;28;20203;-37
2023/05/17 01:08:07;;;;;;;5.13;3.25;;;;;;;;;;5077238;28;20207;-36
2023/05/17 01:10:42;;;;;;;3.50;2.90;;;;;;;;;;5077194;28;20537;-37
2023/05/17 01:13:14;;;;;;;4.95;3.05;;;;;;;;;;5075818;28;20205;-37
2023/05/17 01:15:45;;;;;;;3.40;2.95;;;;;;;;;;5076893;28;20202;-37
2023/05/17 01:18:39;;;;;;;4.05;3.33;;;;;;;;;;5076022;28;20183;-37
2023/05/17 01:21:16;;;;;;;3.75;3.38;;;;;;;;;;5077238;28;20199;-37
2023/05/17 01:23:52;;;;;;;5.03;3.42;;;;;;;;;;5076199;28;20270;-37
2023/05/17 01:26:40;;;;;;;3.50;3.20;;;;;;;;;;5076027;28;20195;-37
2023/05/17 01:29:08;;;;;;;3.88;3.22;;;;;;;;;;5076614;28;20207;-37
2023/05/17 01:31:36;;;;;;;3.92;3.47;;;;;;;;;;5075573;28;20215;-37
2023/05/17 01:34:08;;;;;;;5.25;3.30;;;;;;;;;;5075458;28;20286;-37
2023/05/17 01:36:36;;;;;;;5.03;3.65;;;;;;;;;;5075728;28;20208;-36
2023/05/17 01:39:03;;;;;;;3.70;2.97;;;;;;;;;;5076371;28;20258;-37
2023/05/17 01:41:37;;;;;;;5.82;3.83;;;;;;;;;;5076740;28;20227;-36
2023/05/17 01:44:04;;;;;;;4.25;3.60;;;;;;;;;;5075233;28;20686;-37
2023/05/17 01:46:39;;;;;;;8.63;3.67;;;;;;;;;;5076594;28;20227;-36
2023/05/17 01:49:23;;;;;;;3.70;3.10;;;;;;;;;;5076356;28;20282;-37
2023/05/17 01:52:20;;;;;;;3.40;3.10;;;;;;;;;;5076205;28;20207;-37
2023/05/17 01:55:12;;;;;;;3.90;3.25;;;;;;;;;;5055508;28;20199;-37
2023/05/17 01:57:42;;;;;;;4.78;3.75;;;;;;;;;;5076580;28;20203;-37
2023/05/17 02:00:10;;;;;;;5.85;3.90;;;;;;;;;;5074944;28;20203;-37
2023/05/17 02:02:40;;;;;;;5.55;3.97;;;;;;;;;;5074850;28;20255;-37
2023/05/17 02:05:07;;;;;;;4.78;3.90;;;;;;;;;;5076301;28;20211;-37
2023/05/17 02:07:39;;;;;;;4.80;4.00;;;;;;;;;;5075824;28;20180;-36
2023/05/17 02:10:06;;;;;;;4.68;3.50;;;;;;;;;;5075887;28;20222;-37
2023/05/17 02:12:35;;;;;;;4.60;3.72;;;;;;;;;;5073922;28;20211;-37
2023/05/17 02:15:03;;;;;;;5.30;4.10;;;;;;;;;;5075659;28;20206;-37
2023/05/17 02:17:31;;;;;;;4.82;3.67;;;;;;;;;;5074442;28;20200;-37
2023/05/17 02:19:58;;;;;;;4.97;3.80;;;;;;;;;;5074286;28;20203;-37
2023/05/17 02:22:26;;;;;;;4.65;3.88;;;;;;;;;;5089979;28;20222;-37
2023/05/17 02:24:56;;;;;;;5.00;3.78;;;;;;;;;;5075327;28;20217;-37
2023/05/17 02:27:23;;;;;;;4.10;3.65;;;;;;;;;;5075292;28;20203;-38
2023/05/17 02:29:52;;;;;;;4.60;3.80;;;;;;;;;;5075413;28;20286;-37
2023/05/17 02:32:19;;;;;;;4.38;3.53;;;;;;;;;;5074014;28;20218;-37
2023/05/17 02:34:47;;;;;;;5.30;4.00;;;;;;;;;;5073940;28;20203;-37
2023/05/17 02:37:14;;;;;;;4.97;3.92;;;;;;;;;;5075318;28;20309;-38
2023/05/17 02:39:43;;;;;;;5.55;4.35;;;;;;;;;;5075367;28;20195;-37
2023/05/17 02:42:10;;;;;;;5.57;3.97;;;;;;;;;;5075066;28;20227;-36
2023/05/17 02:44:37;;;;;;;7.72;4.43;;;;;;;;;;5074068;28;20231;-37
2023/05/17 02:47:05;;;;;;;6.57;4.38;;;;;;;;;;5073694;28;20561;-37
2023/05/17 02:49:34;;;;;;;5.25;4.00;;;;;;;;;;5073523;28;20756;-37
2023/05/17 02:52:03;;;;;;;5.60;4.03;;;;;;;;;;5073628;28;20694;-37
2023/05/17 02:54:30;;;;;;;5.03;3.78;;;;;;;;;;5073895;28;20291;-37
2023/05/17 02:56:57;;;;;;;4.88;3.97;;;;;;;;;;5073768;28;20203;-37
2023/05/17 02:59:25;;;;;;;6.00;4.35;;;;;;;;;;5073499;28;20223;-37
2023/05/17 03:01:52;;;;;;;4.93;3.95;;;;;;;;;;5073361;28;20231;-37
2023/05/17 03:04:20;;;;;;;6.50;4.20;;;;;;;;;;5073653;28;20213;-37
2023/05/17 03:06:49;;;;;;;5.70;4.00;;;;;;;;;;5073611;28;20203;-37
2023/05/17 03:09:17;;;;;;;5.05;4.03;;;;;;;;;;5073432;28;20214;-36
2023/05/17 03:11:47;;;;;;;5.25;4.40;;;;;;;;;;5073601;28;20184;-37
2023/05/17 03:14:20;;;;;;;6.28;4.38;;;;;;;;;;5073700;28;20211;-37
2023/05/17 03:16:49;;;;;;;4.60;3.95;;;;;;;;;;5073433;28;20204;-38
2023/05/17 03:19:16;;;;;;;6.63;4.15;;;;;;;;;;5071912;28;20195;-37
2023/05/17 03:21:44;;;;;;;5.07;4.25;;;;;;;;;;5064460;28;20242;-37
2023/05/17 03:24:11;;;;;;;5.63;4.82;;;;;;;;;;5052371;28;20296;-37
2023/05/17 03:26:40;;;;;;;5.90;4.15;;;;;;;;;;5086532;28;20212;-38
2023/05/17 03:29:09;;;;;;;5.68;4.18;;;;;;;;;;5053584;28;20599;-38
2023/05/17 03:31:37;;;;;;;6.35;4.68;;;;;;;;;;5054512;28;20235;-37
2023/05/17 03:34:04;;;;;;;5.60;4.10;;;;;;;;;;5052944;28;20566;-37
2023/05/17 03:36:38;;;;;;;6.22;4.70;;;;;;;;;;5052939;28;20204;-37
2023/05/17 03:39:05;;;;;;;5.10;4.57;;;;;;;;;;5053160;28;20543;-37
2023/05/17 03:41:33;;;;;;;5.90;4.45;;;;;;;;;;5052879;28;20569;-37
2023/05/17 03:44:00;;;;;;;5.95;4.47;;;;;;;;;;5053139;28;20212;-37
2023/05/17 03:46:28;;;;;;;8.00;4.53;;;;;;;;;;5086273;28;20206;-37
2023/05/17 03:48:55;;;;;;;5.95;4.68;;;;;;;;;;5052789;28;20204;-38
2023/05/17 03:51:23;;;;;;;7.18;5.18;;;;;;;;;;5052791;28;20557;-37
2023/05/17 03:53:56;;;;;;;6.13;4.78;;;;;;;;;;5053874;28;20207;-40
2023/05/17 03:56:25;;;;;;;5.80;4.63;;;;;;;;;;5052785;28;20200;-39
2023/05/17 03:58:52;;;;;;;6.22;4.65;;;;;;;;;;5069489;28;20548;-38
2023/05/17 04:01:20;;;;;;;5.35;4.45;;;;;;;;;;5071192;28;20207;-38
2023/05/17 04:03:47;;;;;;;6.68;5.10;;;;;;;;;;5061142;28;20309;-38
2023/05/17 04:06:15;;;;;;;5.07;4.38;;;;;;;;;;5057642;28;20704;-39
2023/05/17 04:08:42;;;;;;;6.50;5.05;;;;;;;;;;5090675;28;20238;-38
2023/05/17 04:11:12;;;;;;;5.45;4.15;;;;;;;;;;5067616;28;20722;-38
2023/05/17 04:13:40;;;;;;;5.53;4.30;;;;;;;;;;5068934;28;20219;-37
2023/05/17 04:16:08;;;;;;;5.72;4.35;;;;;;;;;;5067116;28;20302;-38
2023/05/17 04:18:37;;;;;;;5.78;4.40;;;;;;;;;;5066851;28;20588;-37
2023/05/17 04:21:05;;;;;;;6.75;5.05;;;;;;;;;;5070927;28;20241;-37
2023/05/17 04:23:34;;;;;;;6.15;5.13;;;;;;;;;;5070392;28;20223;-38
2023/05/17 04:26:05;;;;;;;5.00;4.03;;;;;;;;;;5070742;28;20679;-37
2023/05/17 04:28:36;;;;;;;6.18;4.90;;;;;;;;;;5067958;28;20220;-37
2023/05/17 04:31:08;;;;;;;5.43;4.18;;;;;;;;;;5070616;28;20219;-37
2023/05/17 04:33:37;;;;;;;5.97;4.97;;;;;;;;;;5069803;28;21838;-37
2023/05/17 04:36:06;;;;;;;5.32;4.68;;;;;;;;;;5070056;28;20268;-37
2023/05/17 04:38:34;;;;;;;7.72;5.03;;;;;;;;;;5070158;28;20223;-38
2023/05/17 04:41:05;;;;;;;6.05;4.60;;;;;;;;;;5071201;28;20218;-37
2023/05/17 04:43:35;;;;;;;6.53;5.32;;;;;;;;;;5069502;28;20251;-37
2023/05/17 04:46:07;;;;;;;6.32;5.18;;;;;;;;;;5051576;28;20261;-39
2023/05/17 04:48:35;;;;;;;6.63;5.20;;;;;;;;;;5069287;28;20310;-38
2023/05/17 04:51:04;;;;;;;6.90;5.60;;;;;;;;;;5071117;28;20231;-38
2023/05/17 04:53:31;;;;;;;6.75;5.32;;;;;;;;;;5071431;28;20219;-37
2023/05/17 04:56:05;;;;;;;5.82;4.72;;;;;;;;;;5070120;28;20211;-37
2023/05/17 04:58:32;;;;;;;7.45;5.47;;;;;;;;;;5070104;28;20315;-37
2023/05/17 05:01:02;;;;;;;6.65;5.40;;;;;;;;;;5069668;28;20210;-37
2023/05/17 05:03:29;;;;;;;6.60;5.05;;;;;;;;;;5070590;28;20233;-37
2023/05/17 05:05:57;;;;;;;5.32;4.22;;;;;;;;;;5063701;28;20286;-37
2023/05/17 05:08:25;;;;;;;6.10;4.75;;;;;;;;;;5069888;28;20226;-36
2023/05/17 05:10:54;;;;;;;7.43;5.15;;;;;;;;;;5068359;28;20227;-39
2023/05/17 05:13:23;;;;;;;6.18;4.70;;;;;;;;;;5069706;28;20223;-37
2023/05/17 05:15:52;;;;;;;6.70;5.60;;;;;;;;;;5066959;28;20718;-38
2023/05/17 05:18:19;;;;;;;5.97;5.10;;;;;;;;;;5067744;28;20203;-37
2023/05/17 05:20:47;;;;;;;8.02;5.60;;;;;;;;;;5059326;28;20221;-38
2023/05/17 05:23:17;;;;;;;6.60;5.47;;;;;;;;;;5068974;28;20295;-39
2023/05/17 05:25:47;;;;;;;6.35;4.82;;;;;;;;;;5069659;28;20200;-37
2023/05/17 05:28:14;;;;;;;7.57;5.43;;;;;;;;;;5070939;28;20196;-36
2023/05/17 05:30:42;;;;;;;6.18;4.90;;;;;;;;;;5070883;28;20200;-36
2023/05/17 05:33:11;;;;;;;7.45;5.13;;;;;;;;;;5070780;28;20679;-36
2023/05/17 05:35:39;;;;;;;6.55;5.07;;;;;;;;;;5071195;28;20212;-36
2023/05/17 05:38:06;;;;;;;4.97;4.38;;;;;;;;;;5071877;28;20203;-36
2023/05/17 05:40:35;;;;;;;5.50;4.53;;;;;;;;;;5071895;28;20265;-36
2023/05/17 05:43:02;;;;;;;5.45;4.65;;;;;;;;;;5071763;28;20227;-36
2023/05/17 05:45:31;;;;;;;5.45;4.85;;;;;;;;;;5071588;28;20210;-37
2023/05/17 05:48:03;;;;;;;5.97;4.45;;;;;;;;;;5074646;28;20207;-36
2023/05/17 05:50:30;;;;;;;6.45;4.40;;;;;;;;;;5075158;28;20231;-36
2023/05/17 05:53:02;;;;;;;4.80;4.03;;;;;;;;;;5075079;28;20210;-36
2023/05/17 05:55:48;;;;;;;4.72;3.97;;;;;;;;;;5075227;28;20199;-36
2023/05/17 05:58:16;;;;;;;5.32;4.38;;;;;;;;;;5074964;28;20207;-36
2023/05/17 06:00:45;;;;;;;5.03;4.25;;;;;;;;;;5074890;28;20315;-36
2023/05/17 06:03:12;;;;;;;5.95;4.10;;;;;;;;;;5075825;28;20253;-36
2023/05/17 06:05:39;;;;;;;6.68;4.47;;;;;;;;;;5076234;28;20226;-36
2023/05/17 06:08:06;;;;;;;7.85;4.97;;;;;;;;;;5076176;28;20206;-36
2023/05/17 06:10:34;;;;;;;5.05;4.20;;;;;;;;;;5057651;28;20203;-36
2023/05/17 06:13:01;;;;;;;6.03;4.60;;;;;;;;;;5075984;28;20214;-37
2023/05/17 06:15:30;;;;;;;5.50;4.13;;;;;;;;;;5075982;28;20210;-36
2023/05/17 06:17:56;;;;;;;5.63;4.53;;;;;;;;;;5075979;28;20210;-36
2023/05/17 06:20:24;;;;;;;4.55;4.15;;;;;;;;;;5075619;28;20195;-36
2023/05/17 06:22:51;;;;;;;5.20;4.07;;;;;;;;;;5074544;28;20223;-36
2023/05/17 06:25:19;;;;;;;5.07;3.97;;;;;;;;;;5075463;28;20663;-37
2023/05/17 06:27:46;;;;;;;5.50;4.07;;;;;;;;;;5075538;28;20238;-36
2023/05/17 06:30:13;;;;;;;4.93;3.85;;;;;;;;;;5075456;28;20203;-36
2023/05/17 06:32:40;;;;;;;5.90;4.30;;;;;;;;;;5075707;28;20216;-36
2023/05/17 06:35:09;;;;;;;4.32;3.80;;;;;;;;;;5075590;28;20212;-36
2023/05/17 06:37:36;;;;;;;5.10;4.18;;;;;;;;;;5075464;28;20273;-37
2023/05/17 06:40:05;;;;;;;4.70;3.88;;;;;;;;;;5075608;28;20200;-36
2023/05/17 06:42:42;;;;;;;4.57;4.07;;;;;;;;;;5075035;28;20295;-36
2023/05/17 06:45:10;;;;;;;4.38;3.83;;;;;;;;;;5075420;28;20208;-36
2023/05/17 06:47:39;;;;;;;5.07;3.38;;;;;;;;;;5075821;28;20227;-36
2023/05/17 06:50:07;;;;;;;4.97;3.95;;;;;;;;;;5074878;28;20242;-36
2023/05/17 06:52:34;;;;;;;4.60;3.75;;;;;;;;;;5075174;28;20231;-36
2023/05/17 06:55:02;;;;;;;5.28;4.00;;;;;;;;;;5075219;28;20257;-36
2023/05/17 06:57:29;;;;;;;3.97;3.45;;;;;;;;;;5075138;28;20278;-36
2023/05/17 06:59:57;;;;;;;5.03;3.80;;;;;;;;;;5074884;28;20565;-36
2023/05/17 07:02:24;;;;;;;3.75;3.35;;;;;;;;;;5075041;28;20268;-36
2023/05/17 07:04:51;;;;;;;5.22;3.97;;;;;;;;;;5074975;28;20199;-36
2023/05/17 07:07:19;;;;;;;5.15;3.42;;;;;;;;;;5074779;28;20687;-36
2023/05/17 07:09:46;;;;;;;4.38;3.53;;;;;;;;;;5074700;28;20195;-36
2023/05/17 07:12:13;;;;;;;4.30;3.67;;;;;;;;;;5074617;28;20226;-36
2023/05/17 07:14:41;;;;;;;4.80;3.65;;;;;;;;;;5074785;28;20214;-36
2023/05/17 07:17:10;;;;;;;4.50;3.65;;;;;;;;;;5074484;28;20206;-36
2023/05/17 07:19:38;;;;;;;4.38;3.25;;;;;;;;;;5074509;28;20276;-36
2023/05/17 07:22:05;;;;;;;3.65;3.33;;;;;;;;;;5074648;28;20282;-37
2023/05/17 07:24:34;;;;;;;4.60;3.45;;;;;;;;;;5056016;28;20656;-36
2023/05/17 07:27:01;;;;;;;5.25;3.90;;;;;;;;;;5074352;28;20713;-37
2023/05/17 07:29:28;;;;;;;4.80;4.00;;;;;;;;;;5074285;28;20671;-36
2023/05/17 07:31:55;;;;;;;4.75;4.15;;;;;;;;;;5074419;28;20195;-36
2023/05/17 07:34:23;;;;;;;4.72;3.85;;;;;;;;;;5074199;28;20203;-36
2023/05/17 07:36:50;;;;;;;3.88;3.47;;;;;;;;;;5074196;28;20199;-36
2023/05/17 07:39:17;;;;;;;4.57;3.60;;;;;;;;;;5074136;28;20203;-36
2023/05/17 07:41:44;;;;;;;5.85;4.22;;;;;;;;;;5074057;28;20199;-36
2023/05/17 07:44:12;;;;;;;5.75;3.97;;;;;;;;;;5074072;28;20238;-36
2023/05/17 07:46:39;;;;;;;3.92;3.53;;;;;;;;;;5074097;28;20679;-36
2023/05/17 07:49:06;;;;;;;4.38;3.70;;;;;;;;;;5073756;28;20224;-36
2023/05/17 07:51:34;;;;;;;4.25;3.67;;;;;;;;;;5074216;28;20253;-36
2023/05/17 07:54:03;;;;;;;4.40;3.85;;;;;;;;;;5073843;28;20253;-36
2023/05/17 07:56:30;;;;;;;4.82;4.25;;;;;;;;;;5074187;28;20209;-37
2023/05/17 07:58:58;;;;;;;4.80;4.32;;;;;;;;;;5073826;28;20206;-36
2023/05/17 08:01:26;;;;;;;4.40;3.65;;;;;;;;;;5073668;28;20219;-37
2023/05/17 08:03:54;;;;;;;4.10;3.67;;;;;;;;;;5073584;28;20256;-36
2023/05/17 08:06:21;;;;;;;5.43;4.05;;;;;;;;;;5073683;28;20655;-36
2023/05/17 08:08:48;;;;;;;4.05;3.65;;;;;;;;;;5073396;28;20203;-37
2023/05/17 08:11:15;;;;;;;4.30;3.67;;;;;;;;;;5073530;28;20203;-36
2023/05/17 08:13:44;;;;;;;4.72;4.00;;;;;;;;;;5073846;28;20214;-36
2023/05/17 08:16:11;;;;;;;6.00;4.47;;;;;;;;;;5073575;28;20656;-36
2023/05/17 08:18:41;;;;;;;6.45;4.30;;;;;;;;;;5073547;28;20781;-37
2023/05/17 08:21:10;;;;;;;4.72;4.25;;;;;;;;;;5073791;28;20286;-36
2023/05/17 08:23:38;;;;;;;3.67;3.30;;;;;;;;;;5073654;28;20691;-36
2023/05/17 08:26:05;;;;;;;5.00;4.30;;;;;;;;;;5073548;28;20214;-36
2023/05/17 08:28:33;;;;;;;5.95;4.55;;;;;;;;;;5073332;28;20663;-36
2023/05/17 08:31:03;;;;;;;6.40;4.47;;;;;;;;;;5073576;28;20247;-36
2023/05/17 08:33:30;;;;;;;5.07;4.00;;;;;;;;;;5073593;28;20554;-37
2023/05/17 08:36:00;;;;;;;4.80;4.10;;;;;;;;;;5073220;28;20225;-36
2023/05/17 08:38:27;;;;;;;4.82;4.30;;;;;;;;;;5074219;28;20203;-36
2023/05/17 08:40:55;;;;;;;5.13;4.18;;;;;;;;;;5073381;28;20290;-36
2023/05/17 08:43:23;;;;;;;6.28;4.15;;;;;;;;;;5072616;28;20230;-36
2023/05/17 08:45:56;;;;;;;4.47;4.07;;;;;;;;;;5073316;28;20211;-36
2023/05/17 08:48:29;;;;;;;5.53;4.90;;;;;;;;;;5073285;28;20717;-36
2023/05/17 08:50:58;;;;;;;5.90;4.63;;;;;;;;;;5073801;28;20746;-36
2023/05/17 08:53:26;;;;;;;6.75;5.40;;;;;;;;;;5072210;28;20211;-36
2023/05/17 08:56:01;;;;;;;8.60;6.07;;;;;;;;;;5073292;28;20227;-36
2023/05/17 08:58:33;;;;;;;7.72;5.72;;;;;;;;;;5073409;28;20203;-36
2023/05/17 09:01:20;;;;;;;6.35;5.22;;;;;;;;;;5073233;28;20225;-36
2023/05/17 09:03:51;;;;;;;8.27;6.10;;;;;;;;;;5072170;28;20238;-36
2023/05/17 09:06:20;;;;;;;8.25;6.25;;;;;;;;;;5071615;28;20627;-36
2023/05/17 09:08:52;;;;;;;8.15;6.68;;;;;;;;;;5070170;28;20203;-36
2023/05/17 09:11:26;;;;;;;8.52;6.65;;;;;;;;;;5073258;28;20642;-36
2023/05/17 09:13:58;;;;;;;8.68;7.05;;;;;;;;;;5072971;28;20187;-36
2023/05/17 09:16:30;;;;;;;7.75;5.70;;;;;;;;;;5073094;28;20222;-36
2023/05/17 09:18:58;;;;;;;7.47;6.10;;;;;;;;;;5072967;28;20202;-36
2023/05/17 09:21:28;;;;;;;10.05;7.43;;;;;;;;;;5073665;28;20286;-36
2023/05/17 09:23:58;;;;;;;9.57;6.93;;;;;;;;;;5076968;28;20225;-36
2023/05/17 09:26:44;;;;;;;8.88;6.88;;;;;;;;;;5076986;28;20203;-36
2023/05/17 09:29:15;;;;;;;7.95;6.68;;;;;;;;;;5076922;28;20192;-36
2023/05/17 09:31:43;;;;;;;8.50;6.82;;;;;;;;;;5077019;28;20250;-36
2023/05/17 09:34:18;;;;;;;11.25;7.32;;;;;;;;;;5061852;28;20224;-36
2023/05/17 09:36:45;;;;;;;8.45;6.65;;;;;;;;;;5071093;28;20247;-36
2023/05/17 09:39:13;;;;;;;9.43;6.80;;;;;;;;;;5074527;28;20269;-36
2023/05/17 09:41:45;;;;;;;10.40;8.23;;;;;;;;;;5073903;28;20286;-36
2023/05/17 09:44:15;;;;;;;10.70;7.65;;;;;;;;;;5062826;28;20219;-36
2023/05/17 09:46:46;;;;;;;10.82;8.23;;;;;;;;;;5075421;28;20238;-36
2023/05/17 09:49:16;;;;;;;11.27;7.72;;;;;;;;;;5076608;28;20231;-36
2023/05/17 09:51:46;;;;;;;10.80;7.85;;;;;;;;;;5076779;28;20199;-36
2023/05/17 09:54:13;;;;;;;10.20;8.20;;;;;;;;;;5076076;28;20203;-36
2023/05/17 09:56:40;;;;;;;11.63;7.45;;;;;;;;;;5076035;28;20203;-36
2023/05/17 09:59:11;;;;;;;10.23;7.25;;;;;;;;;;5076089;28;20200;-36
2023/05/17 10:01:40;;;;;;;9.02;7.28;;;;;;;;;;5076389;28;20210;-37
2023/05/17 10:04:09;;;;;;;9.73;8.02;;;;;;;;;;5075996;28;20628;-36
2023/05/17 10:06:40;;;;;;;8.40;6.88;;;;;;;;;;5075961;28;20210;-36
2023/05/17 10:09:20;;;;;;;10.32;8.40;;;;;;;;;;5076519;28;20211;-36
2023/05/17 10:11:50;;;;;;;12.10;8.35;;;;;;;;;;5074626;28;20184;-39
2023/05/17 10:14:22;;;;;;;10.82;8.02;;;;;;;;;;5075921;28;20222;-36
2023/05/17 10:16:50;;;;;;;10.70;8.18;;;;;;;;;;5075901;28;20207;-36
2023/05/17 10:19:19;;;;;;;10.88;8.75;;;;;;;;;;5076024;28;20203;-36
2023/05/17 10:21:48;;;;;;;12.38;8.60;;;;;;;;;;5075714;28;20652;-36
2023/05/17 10:24:15;;;;;;;10.48;8.23;;;;;;;;;;5074677;28;20232;-36
2023/05/17 10:26:43;;;;;;;9.95;8.00;;;;;;;;;;5075605;28;20207;-36
2023/05/17 10:29:10;;;;;;;9.77;7.80;;;;;;;;;;5075671;28;20675;-36
2023/05/17 10:31:40;;;;;;;10.65;7.82;;;;;;;;;;5075486;28;20203;-36
2023/05/17 10:34:10;;;;;;;10.93;7.90;;;;;;;;;;5074360;28;20188;-36
2023/05/17 10:36:38;;;;;;;11.10;8.20;;;;;;;;;;5075765;28;20273;-36
2023/05/17 10:39:06;;;;;;;9.90;7.35;;;;;;;;;;5075515;28;20226;-36
2023/05/17 10:41:34;;;;;;;10.52;7.78;;;;;;;;;;5057702;28;20210;-36
2023/05/17 10:44:03;;;;;;;10.02;8.27;;;;;;;;;;5075241;28;20234;-36
2023/05/17 10:46:31;;;;;;;11.15;8.32;;;;;;;;;;5074075;28;20211;-36
2023/05/17 10:48:59;;;;;;;9.88;7.45;;;;;;;;;;5074037;28;20202;-36
2023/05/17 10:51:32;;;;;;;9.40;7.82;;;;;;;;;;5073892;28;20282;-37
2023/05/17 10:54:10;;;;;;;9.90;7.60;;;;;;;;;;5071307;28;20203;-36
2023/05/17 10:56:46;;;;;;;9.15;6.95;;;;;;;;;;5071038;28;20183;-37
2023/05/17 10:59:16;;;;;;;10.85;8.30;;;;;;;;;;5073582;28;20600;-37
2023/05/17 11:02:02;;;;;;;10.68;7.18;;;;;;;;;;5073677;28;20191;-37
2023/05/17 11:04:35;;;;;;;9.00;7.10;;;;;;;;;;5071864;28;20203;-36
2023/05/17 11:07:18;;;;;;;9.90;8.02;;;;;;;;;;5073168;28;20678;-38
2023/05/17 11:09:53;;;;;;;9.63;7.57;;;;;;;;;;5073598;28;20644;-37
2023/05/17 11:12:37;;;;;;;9.25;7.90;;;;;;;;;;5068627;28;20406;-37
2023/05/17 11:15:09;;;;;;;10.32;7.70;;;;;;;;;;5072394;28;20199;-38
2023/05/17 11:17:42;;;;;;;11.73;8.45;;;;;;;;;;5073509;28;20200;-37
2023/05/17 11:20:13;;;;;;;11.98;8.75;;;;;;;;;;5069735;28;20195;-37
2023/05/17 11:23:06;;;;;;;11.88;8.75;;;;;;;;;;5073049;28;20187;-36
2023/05/17 11:25:37;;;;;;;12.38;8.88;;;;;;;;;;5071338;28;20203;-39
2023/05/17 11:28:07;;;;;;;10.90;9.02;;;;;;;;;;5072998;28;20202;-38
2023/05/17 11:30:40;;;;;;;10.38;8.05;;;;;;;;;;5070390;28;20210;-36
2023/05/17 11:33:07;;;;;;;12.10;8.93;;;;;;;;;;5068638;28;20220;-37
2023/05/17 11:35:52;;;;;;;12.95;8.88;;;;;;;;;;5070824;28;20196;-36
2023/05/17 11:38:22;;;;;;;10.73;8.52;;;;;;;;;;5069645;28;20203;-36
2023/05/17 11:40:54;;;;;;;11.00;8.43;;;;;;;;;;5070410;28;20200;-36
2023/05/17 11:43:22;;;;;;;10.70;7.90;;;;;;;;;;5071625;28;20564;-39
2023/05/17 11:45:51;;;;;;;10.80;8.43;;;;;;;;;;5071919;28;20222;-36
2023/05/17 11:48:21;;;;;;;9.90;7.28;;;;;;;;;;5072509;28;20196;-36
2023/05/17 11:50:50;;;;;;;11.38;8.50;;;;;;;;;;5072260;28;20227;-37
2023/05/17 11:53:18;;;;;;;9.45;8.10;;;;;;;;;;5072307;28;20663;-36
2023/05/17 11:55:47;;;;;;;9.82;7.82;;;;;;;;;;5072163;28;20656;-36
2023/05/17 11:58:16;;;;;;;10.82;8.65;;;;;;;;;;5072619;28;20725;-37
2023/05/17 12:00:44;;;;;;;13.18;8.43;;;;;;;;;;5072058;28;20187;-36
2023/05/17 12:03:21;;;;;;;9.52;7.97;;;;;;;;;;5071780;28;20206;-36
2023/05/17 12:06:10;;;;;;;10.25;7.80;;;;;;;;;;5070151;28;20255;-35
2023/05/17 12:08:39;;;;;;;11.27;7.93;;;;;;;;;;5072223;28;20195;-36
2023/05/17 12:11:07;;;;;;;11.13;8.13;;;;;;;;;;5072248;28;20192;-36
2023/05/17 12:13:34;;;;;;;10.85;7.88;;;;;;;;;;5070242;28;20285;-36
2023/05/17 12:16:04;;;;;;;10.60;7.70;;;;;;;;;;5072553;28;20635;-37
2023/05/17 12:18:41;;;;;;;9.25;7.75;;;;;;;;;;5071771;28;20204;-36
2023/05/17 12:21:12;;;;;;;9.48;7.30;;;;;;;;;;5072288;28;20191;-37
2023/05/17 12:23:44;;;;;;;11.18;8.18;;;;;;;;;;5069922;28;20199;-36
2023/05/17 12:26:20;;;;;;;11.88;7.97;;;;;;;;;;5072135;28;20199;-36
2023/05/17 12:28:53;;;;;;;11.73;8.80;;;;;;;;;;5072480;28;20191;-36
2023/05/17 12:31:42;;;;;;;12.20;8.57;;;;;;;;;;5069425;28;20687;-36
2023/05/17 12:34:11;;;;;;;9.95;7.40;;;;;;;;;;5071164;28;20270;-36
2023/05/17 12:36:39;;;;;;;9.30;7.25;;;;;;;;;;5072082;28;20192;-36
2023/05/17 12:39:08;;;;;;;9.70;7.65;;;;;;;;;;5072378;28;20187;-36
2023/05/17 12:41:37;;;;;;;10.32;7.47;;;;;;;;;;5073476;28;20199;-36
2023/05/17 12:44:06;;;;;;;9.93;7.38;;;;;;;;;;5067604;28;20223;-36
2023/05/17 12:46:42;;;;;;;9.63;7.65;;;;;;;;;;5070892;28;20695;-37
2023/05/17 12:49:13;;;;;;;10.73;7.32;;;;;;;;;;5069760;28;20235;-36
2023/05/17 12:51:44;;;;;;;11.60;7.07;;;;;;;;;;5059117;28;20570;-38
2023/05/17 12:54:15;;;;;;;8.25;6.43;;;;;;;;;;5072147;28;20696;-36
2023/05/17 12:56:43;;;;;;;9.00;6.50;;;;;;;;;;5054230;28;20724;-37
2023/05/17 12:59:13;;;;;;;11.20;6.55;;;;;;;;;;5071492;28;20234;-36
2023/05/17 13:01:46;;;;;;;7.03;5.50;;;;;;;;;;5076243;28;20226;-35
2023/05/17 13:04:14;;;;;;;9.00;6.05;;;;;;;;;;5075268;28;20758;-36
2023/05/17 13:06:49;;;;;;;7.82;5.78;;;;;;;;;;5074526;28;20556;-38
2023/05/17 13:09:18;;;;;;;7.50;5.18;;;;;;;;;;5074715;28;20224;-36
2023/05/17 13:12:06;;;;;;;6.68;5.15;;;;;;;;;;5075189;28;20333;-36
2023/05/17 13:14:40;;;;;;;6.57;5.28;;;;;;;;;;5073866;28;20287;-38
2023/05/17 13:17:16;;;;;;;5.07;4.57;;;;;;;;;;5073936;28;20245;-36
2023/05/17 13:19:43;;;;;;;7.00;5.03;;;;;;;;;;5071156;28;20314;-35
2023/05/17 13:22:11;;;;;;;7.07;4.95;;;;;;;;;;5074825;28;20234;-36
2023/05/17 13:24:38;;;;;;;7.47;5.15;;;;;;;;;;5074661;28;20309;-38
2023/05/17 13:27:07;;;;;;;6.85;4.72;;;;;;;;;;5072396;28;20215;-37
2023/05/17 13:29:35;;;;;;;8.40;5.03;;;;;;;;;;5072434;28;20225;-38
2023/05/17 13:32:09;;;;;;;6.30;4.55;;;;;;;;;;5073358;28;20219;-38
2023/05/17 13:34:36;;;;;;;6.18;4.72;;;;;;;;;;5072454;28;20581;-37
2023/05/17 13:37:04;;;;;;;5.88;4.82;;;;;;;;;;5070917;28;20210;-37
2023/05/17 13:39:35;;;;;;;5.85;4.00;;;;;;;;;;5071672;28;20610;-38
2023/05/17 13:42:03;;;;;;;6.35;4.40;;;;;;;;;;5074186;28;20223;-39
2023/05/17 13:44:30;;;;;;;4.68;3.42;;;;;;;;;;5073680;28;20227;-40
2023/05/17 13:46:57;;;;;;;4.97;3.33;;;;;;;;;;5071785;28;20276;-39
2023/05/17 13:49:25;;;;;;;5.10;3.78;;;;;;;;;;5073361;28;20358;-39
2023/05/17 13:51:52;;;;;;;4.95;3.65;;;;;;;;;;5072316;28;20744;-38
2023/05/17 13:54:20;;;;;;;4.72;3.75;;;;;;;;;;5073652;28;20222;-39
2023/05/17 13:56:50;;;;;;;3.75;3.15;;;;;;;;;;5074291;28;20227;-39
2023/05/17 13:59:17;;;;;;;3.53;2.80;;;;;;;;;;5073827;28;20215;-40
2023/05/17 14:01:44;;;;;;;4.97;3.45;;;;;;;;;;5074415;28;20225;-38
2023/05/17 14:04:12;;;;;;;3.60;2.53;;;;;;;;;;5072927;28;20219;-40
2023/05/17 14:06:40;;;;;;;3.30;2.70;;;;;;;;;;5071253;28;20227;-39
2023/05/17 14:09:07;;;;;;;2.45;2.00;;;;;;;;;;5070624;28;20277;-38
2023/05/17 14:11:35;;;;;;;3.08;2.60;;;;;;;;;;5069816;28;20215;-39
2023/05/17 14:14:03;;;;;;;3.72;2.47;;;;;;;;;;5072978;28;20215;-38
2023/05/17 14:16:30;;;;;;;2.50;2.00;;;;;;;;;;5072995;28;20226;-39
2023/05/17 14:18:57;;;;;;;2.60;2.00;;;;;;;;;;5070698;28;20255;-40
2023/05/17 14:21:30;;;;;;;2.40;2.05;;;;;;;;;;5072206;28;20227;-39
2023/05/17 14:23:57;;;;;;;2.33;2.00;;;;;;;;;;5070711;28;20239;-38
2023/05/17 14:26:25;;;;;;;2.00;1.70;;;;;;;;;;5072755;28;20231;-39
2023/05/17 14:28:52;;;;;;;3.30;2.05;;;;;;;;;;5048419;28;20695;-38
2023/05/17 14:31:20;;;;;;;2.33;1.60;;;;;;;;;;5072902;28;20227;-38
2023/05/17 14:33:47;;;;;;;2.47;1.80;;;;;;;;;;5072738;28;20245;-46
2023/05/17 14:36:14;;;;;;;1.92;1.55;;;;;;;;;;5073031;28;20747;-38
2023/05/17 14:38:42;;;;;;;1.38;1.27;;;;;;;;;;5074495;28;20233;-39
2023/05/17 14:41:09;;;;;;;1.65;1.50;;;;;;;;;;5074305;28;20227;-38
2023/05/17 14:43:36;;;;;;;2.05;1.40;;;;;;;;;;5074364;28;20272;-38
2023/05/17 14:46:03;;;;;;;1.35;1.23;;;;;;;;;;5074324;28;20231;-38
2023/05/17 14:48:31;;;;;;;1.17;1.02;;;;;;;;;;5074478;28;20223;-38
2023/05/17 14:50:58;;;;;;;1.17;1.08;;;;;;;;;;5074277;28;20284;-38
2023/05/17 14:53:27;;;;;;;1.20;1.08;;;;;;;;;;5072897;28;20359;-39
2023/05/17 14:55:57;;;;;;;1.50;1.00;;;;;;;;;;5072492;28;20592;-38